EW0006 Baza ES current weather conditions

sailwx.info

Wind from 005 at 3 knots gusting 8

Air temperature 10.0° C
Dewpoint 4.6° C

Last reported at 2020-Jan-17 18:02 UTC.
Time now 2020-Jan-17 19:06 UTC

Location: N 37°29' W 002°46'.
View on Google Maps.

See reports from other nearby stations

  
Tides and Currents Weather Stations Pressure Air Temp Water Temp Dewpoint Dewpoint Depression Visibility Wind Speed Wind Dir Waves Ship Positions
date/time (UTC)wind fromknots sea level pressurealtimeterstation pressurevisibilityair tempwater tempwave heightnotes
2020-Jan-17 18:02 005 3 gusting 8 10.0
2020-Jan-17 17:48 005 5 gusting 8 10.0
2020-Jan-17 17:45 005 4 gusting 8 10.0
2020-Jan-17 17:31 005 6 gusting 10 10.0
2020-Jan-17 17:30 005 6 gusting 10 10.0
2020-Jan-17 17:16 005 5 gusting 7 10.6
2020-Jan-17 17:01 005 6 gusting 9 10.6
2020-Jan-17 16:47 005 2 gusting 6 11.1
2020-Jan-17 16:31 005 3 gusting 7 11.7
2020-Jan-17 16:15 005 2 gusting 7 11.7
2020-Jan-17 16:01 005 6 gusting 8 12.2
2020-Jan-17 15:47 005 6 gusting 9 12.2
2020-Jan-17 15:31 005 5 gusting 11 12.8
2020-Jan-17 15:16 005 4 gusting 9 12.8
2020-Jan-17 15:01 005 6 gusting 11 12.8
2020-Jan-17 15:00 005 6 gusting 12 12.8
2020-Jan-17 14:46 005 3 gusting 10 12.8
2020-Jan-17 14:32 005 6 gusting 10 12.8
2020-Jan-17 14:30 005 6 gusting 10 12.8
2020-Jan-17 14:16 005 5 gusting 8 12.8
2020-Jan-17 14:02 005 6 gusting 10 12.8
2020-Jan-17 13:46 360 4 gusting 13 12.8
2020-Jan-17 13:31 005 4 gusting 9 12.2
2020-Jan-17 13:16 005 5 gusting 9 12.2
2020-Jan-17 13:01 005 5 gusting 9 12.2
2020-Jan-17 12:45 005 5 gusting 13 11.7
2020-Jan-17 12:30 005 4 gusting 12 11.7
2020-Jan-17 12:16 005 8 gusting 13 11.7
2020-Jan-17 12:03 005 7 gusting 11 11.7
2020-Jan-17 11:48 005 1 gusting 7 12.2
2020-Jan-17 11:32 005 3 gusting 12 12.2
2020-Jan-17 11:17 005 2 gusting 8 11.1
2020-Jan-17 11:02 005 5 gusting 12 11.1
2020-Jan-17 10:47 005 3 gusting 10 10.6
2020-Jan-17 10:31 005 4 gusting 13 8.3
2020-Jan-17 10:17 005 0 gusting 5 6.7
2020-Jan-17 10:01 005 6.1
2020-Jan-17 09:46 005 5.0
2020-Jan-17 09:18 005 3.9
2020-Jan-17 09:03 005 3.9
2020-Jan-17 09:00 005 3.9
2020-Jan-17 08:47 005 4.4
2020-Jan-17 08:31 005 1 gusting 3 4.4
2020-Jan-17 08:30 005 1 gusting 3 4.4
2020-Jan-17 08:16 005 3.9
2020-Jan-17 08:01 005 3.9
2020-Jan-17 07:46 005 3.9
2020-Jan-17 07:32 005 3.9
2020-Jan-17 07:15 005 4.4
2020-Jan-17 07:00 005 4.4
2020-Jan-17 06:46 005 4.4
2020-Jan-17 06:45 005 4.4
2020-Jan-17 06:30 005 5.0
2020-Jan-17 06:17 005 5.6
2020-Jan-17 06:02 005 2 gusting 7 5.6
2020-Jan-17 05:47 005 2 gusting 6 3.3
2020-Jan-17 05:31 005 3.3
2020-Jan-17 05:30 005 3.3
2020-Jan-17 05:16 005 1 gusting 3 2.2
2020-Jan-17 05:01 005 1.7
2020-Jan-17 04:46 005 1.7
2020-Jan-17 04:31 005 2.8
2020-Jan-17 04:16 005 5.0
2020-Jan-17 04:00 005 2 gusting 6 6.7
2020-Jan-17 03:45 005 1 gusting 6 6.1
2020-Jan-17 03:32 005 1 gusting 6 5.6
2020-Jan-17 03:17 005 3 gusting 7 4.4
2020-Jan-17 03:02 005 1 gusting 4 4.4
2020-Jan-17 02:48 005 4.4
2020-Jan-17 02:32 005 0 gusting 2 5.0
2020-Jan-17 02:15 005 0 gusting 5 4.4
2020-Jan-17 02:01 005 0 gusting 4 3.9
2020-Jan-17 01:45 005 3.9
2020-Jan-17 01:31 005 3.9
2020-Jan-17 01:16 005 3.3
2020-Jan-17 01:15 005 3.3
2020-Jan-17 01:00 005 2.8
2020-Jan-17 00:46 005 2.8
2020-Jan-17 00:33 005 3.3
2020-Jan-17 00:16 005 3.9
2020-Jan-17 00:15 005 3.9
2020-Jan-17 00:03 005 0 gusting 3 4.4
2020-Jan-16 23:48 005 4.4
2020-Jan-16 23:31 005 5.0
2020-Jan-16 23:15 005 5.0
2020-Jan-16 23:00 005 5.0
2020-Jan-16 22:45 005 5.0
2020-Jan-16 22:30 005 5.6
2020-Jan-16 22:15 005 5.6
2020-Jan-16 22:01 005 5.6
2020-Jan-16 22:00 005 5.6
2020-Jan-16 21:47 005 1 gusting 5 5.6
2020-Jan-16 21:32 005 5.6
2020-Jan-16 21:17 005 0 gusting 2 6.7
2020-Jan-16 21:02 005 6.7
2020-Jan-16 20:47 005 2 gusting 4 6.1
2020-Jan-16 20:30 005 0 gusting 2 6.7
2020-Jan-16 20:15 005 7.2
2020-Jan-16 20:01 005 7.8
2020-Jan-16 19:46 005 0 gusting 3 7.8
2020-Jan-16 19:45 005 0 gusting 3 7.8
2020-Jan-16 19:32 005 1 gusting 4 8.3
2020-Jan-16 19:16 005 2 gusting 4 8.3
2020-Jan-16 19:00 005 1 gusting 4 8.3
2020-Jan-16 18:45 005 2 gusting 4 7.8
2020-Jan-16 18:33 005 2 gusting 5 7.8
2020-Jan-16 18:17 005 2 gusting 4 7.8
2020-Jan-16 18:15 005 2 gusting 4 7.8
2020-Jan-16 18:01 005 1 gusting 2 8.3
2020-Jan-16 17:47 005 1 gusting 3 9.4
2020-Jan-16 17:32 005 1 gusting 3 10.0
2020-Jan-16 17:16 005 1 gusting 4 10.6
2020-Jan-16 17:00 005 0 gusting 2 11.1
2020-Jan-16 16:46 005 11.7
2020-Jan-16 16:31 005 0 gusting 4 12.2
2020-Jan-16 16:15 005 1 gusting 5 12.2
2020-Jan-16 16:01 005 3 gusting 6 12.8
2020-Jan-16 15:45 005 1 gusting 6 12.8
2020-Jan-16 15:30 005 3 gusting 6 12.8
2020-Jan-16 15:17 005 3 gusting 7 12.8
2020-Jan-16 15:15 005 3 gusting 7 12.8
2020-Jan-16 15:02 005 2 gusting 7 12.2
2020-Jan-16 14:46 005 2 gusting 7 12.2
2020-Jan-16 14:33 005 0 gusting 3 12.2
2020-Jan-16 14:17 005 2 gusting 6 11.7
2020-Jan-16 14:01 005 1 gusting 5 11.1
2020-Jan-16 13:46 005 2 gusting 4 11.1
2020-Jan-16 13:32 005 0 gusting 4 10.6
2020-Jan-16 13:17 005 1 gusting 5 10.6
2020-Jan-16 13:03 005 1 gusting 6 10.0
2020-Jan-16 12:45 360 1 gusting 4 9.4
2020-Jan-16 12:33 005 0 gusting 4 8.9
2020-Jan-16 12:30 005 1 gusting 4 8.9
2020-Jan-16 12:18 005 2 gusting 4 8.3
2020-Jan-16 12:03 360 0 gusting 3 7.8
2020-Jan-16 11:48 005 1 gusting 4 7.8
2020-Jan-16 11:32 005 7.2
2020-Jan-16 11:16 005 6.1
2020-Jan-16 11:00 005 5.6
2020-Jan-16 10:46 005 4.4
2020-Jan-16 10:30 005 3.3
2020-Jan-16 10:15 005 2.8
2020-Jan-16 10:03 005 2.2
2020-Jan-16 09:46 005 2.2
2020-Jan-16 09:45 005 1.7
2020-Jan-16 09:31 005 1.1
2020-Jan-16 09:30 005 1.1
2020-Jan-16 09:17 005 1.1
2020-Jan-16 09:02 005 0.6
2020-Jan-16 08:46 005 -0.0
2020-Jan-16 08:32 005 -0.0
2020-Jan-16 08:16 005 -0.6
2020-Jan-16 08:00 005 -0.6
2020-Jan-16 07:46 005 -0.6
2020-Jan-16 07:30 005 -0.6
2020-Jan-16 07:18 005 -0.6
2020-Jan-16 07:02 005 -0.6
2020-Jan-16 06:49 005 -0.6
2020-Jan-16 06:32 005 -0.6
2020-Jan-16 06:17 005 -0.6
2020-Jan-16 06:01 005 1 gusting 3 -0.6
2020-Jan-16 06:00 005 1 gusting 3 -0.6
2020-Jan-16 05:45 005 -0.6
2020-Jan-16 05:31 005 -0.6
2020-Jan-16 05:30 005 -0.0
2020-Jan-16 05:19 005 -0.0
2020-Jan-16 05:03 005 -0.0
2020-Jan-16 04:46 005 -0.0
2020-Jan-16 04:32 005 0.6
2020-Jan-16 04:17 005 0.6
2020-Jan-16 04:00 005 0.6
2020-Jan-16 03:46 005 0.6
2020-Jan-16 03:31 005 1.1
2020-Jan-16 03:16 005 1.1
2020-Jan-16 03:01 005 1.1
2020-Jan-16 02:49 005 1.1
2020-Jan-16 02:31 005 1.1
2020-Jan-16 02:30 005 1.1
2020-Jan-16 02:18 005 1.7
2020-Jan-16 02:01 005 1.7
2020-Jan-16 02:00 005 1.7
2020-Jan-16 01:48 005 1.7
2020-Jan-16 01:33 005 1.7
2020-Jan-16 01:16 005 1.7
2020-Jan-16 01:01 005 0 gusting 2 2.2
2020-Jan-16 00:45 005 2.2
2020-Jan-16 00:30 005 2.2
2020-Jan-16 00:16 005 2.8
2020-Jan-16 00:01 005 2.8
2020-Jan-15 23:48 005 0 gusting 4 3.3
2020-Jan-15 23:34 005 3.9
2020-Jan-15 23:16 005 4.4
2020-Jan-15 23:15 005 4.4
2020-Jan-15 23:01 005 1 gusting 4 4.4
2020-Jan-15 22:46 005 0 gusting 4 4.4
2020-Jan-15 22:31 005 5.0
2020-Jan-15 22:16 005 5.0
2020-Jan-15 22:01 005 5.0
2020-Jan-15 21:45 005 5.6
2020-Jan-15 21:30 005 5.6
2020-Jan-15 21:17 005 2 gusting 5 5.6
2020-Jan-15 21:00 005 0 gusting 4 6.1
2020-Jan-15 20:45 005 2 gusting 5 6.7
2020-Jan-15 20:32 005 1 gusting 4 6.7
2020-Jan-15 20:16 005 3 gusting 5 6.7
2020-Jan-15 20:01 005 2 gusting 6 6.7
2020-Jan-15 19:46 005 1 gusting 4 7.2
2020-Jan-15 19:31 005 1 gusting 3 7.2
2020-Jan-15 19:16 005 7.8
2020-Jan-15 19:00 005 1 gusting 5 8.3